createdAt,value
2019-04-01T00:01:43.584Z,53.87
2019-04-01T00:04:13.126Z,50.55
2019-04-01T00:06:42.666Z,51.15
2019-04-01T00:09:12.086Z,53.95
2019-04-01T00:11:43.940Z,49.18
2019-04-01T00:14:13.447Z,49.25
2019-04-01T00:16:42.869Z,56.75
2019-04-01T00:19:12.282Z,35.08
2019-04-01T00:21:44.423Z,50.30
2019-04-01T00:24:12.718Z,44.23
2019-04-01T00:27:30.809Z,41.37
2019-04-01T00:30:00.356Z,44.53
2019-04-01T00:32:29.776Z,40.83
2019-04-01T00:34:59.163Z,46.68
2019-04-01T00:37:28.498Z,44.18
2019-04-01T00:39:57.915Z,34.75
2019-04-01T00:42:34.743Z,33.70
2019-04-01T00:45:04.299Z,37.83
2019-04-01T00:47:33.632Z,35.95
2019-04-01T00:50:03.052Z,37.60
2019-04-01T00:52:32.625Z,40.98
2019-04-01T00:55:02.059Z,41.55
2019-04-01T00:57:34.623Z,41.10
2019-04-01T01:00:04.491Z,38.35
2019-04-01T01:02:33.893Z,41.40
2019-04-01T01:05:03.252Z,48.10
2019-04-01T01:07:32.652Z,39.03
2019-04-01T01:10:02.081Z,35.58
2019-04-01T01:12:31.477Z,31.70
2019-04-01T01:15:00.756Z,33.25
2019-04-01T01:17:30.096Z,30.25
2019-04-01T01:19:59.484Z,27.17
2019-04-01T01:22:28.816Z,32.95
2019-04-01T01:25:00.343Z,24.25
2019-04-01T01:27:29.310Z,27.45
2019-04-01T01:29:58.699Z,26.87
2019-04-01T01:32:28.087Z,28.98
2019-04-01T01:34:57.453Z,37.03
2019-04-01T01:37:29.949Z,25.82
2019-04-01T01:39:59.403Z,31.05
2019-04-01T01:42:28.827Z,27.37
2019-04-01T01:44:58.526Z,29.20
2019-04-01T01:47:27.928Z,28.45
2019-04-01T01:49:57.361Z,33.58
2019-04-01T01:52:26.786Z,26.17
2019-04-01T01:54:56.182Z,29.02
2019-04-01T01:57:25.542Z,26.85
2019-04-01T01:59:54.956Z,29.75
2019-04-01T02:02:24.435Z,29.70
2019-04-01T02:04:53.852Z,29.95
2019-04-01T02:07:24.727Z,28.60
2019-04-01T02:09:54.101Z,26.82
2019-04-01T02:12:23.517Z,32.85
2019-04-01T02:14:52.883Z,32.58
2019-04-01T02:17:22.399Z,42.65
2019-04-01T02:19:51.836Z,25.25
2019-04-01T02:22:21.179Z,33.30
2019-04-01T02:24:50.520Z,35.58
2019-04-01T02:27:19.875Z,33.53
2019-04-01T02:29:49.295Z,33.98
2019-04-01T02:32:18.571Z,35.90
2019-04-01T02:34:48.006Z,30.62
2019-04-01T02:37:17.399Z,44.75
2019-04-01T02:39:46.882Z,33.40
2019-04-01T02:42:16.295Z,38.70
2019-04-01T02:44:45.689Z,35.95
2019-04-01T02:47:15.170Z,35.08
2019-04-01T02:49:44.577Z,28.52
2019-04-01T02:52:13.999Z,39.27
2019-04-01T02:54:43.380Z,38.35
2019-04-01T02:57:12.712Z,28.45
2019-04-01T02:59:42.081Z,41.00
2019-04-01T03:02:12.548Z,28.07
2019-04-01T03:04:41.904Z,35.15
2019-04-01T03:07:11.394Z,34.35
2019-04-01T03:09:40.839Z,37.75
2019-04-01T03:12:10.162Z,30.72
2019-04-01T03:14:39.585Z,37.63
2019-04-01T03:17:09.070Z,37.78
2019-04-01T03:19:38.376Z,24.07
2019-04-01T03:22:07.688Z,30.65
2019-04-01T03:24:37.065Z,35.50
2019-04-01T03:27:06.471Z,31.55
2019-04-01T03:29:35.911Z,27.62
2019-04-01T03:32:05.312Z,30.00
2019-04-01T03:34:34.785Z,31.65
2019-04-01T03:37:04.203Z,31.70
2019-04-01T03:39:33.572Z,31.75
2019-04-01T03:42:03.030Z,31.85
2019-04-01T03:44:32.419Z,25.40
2019-04-01T03:47:01.795Z,29.98
2019-04-01T03:49:31.139Z,22.15
2019-04-01T03:52:00.536Z,27.70
2019-04-01T03:54:29.898Z,28.57
2019-04-01T03:56:59.424Z,24.63
2019-04-01T03:59:28.846Z,25.75
2019-04-01T04:01:58.294Z,27.10
2019-04-01T04:04:27.654Z,27.90
2019-04-01T04:06:56.980Z,26.57
2019-04-01T04:09:26.514Z,24.30
2019-04-01T04:11:55.940Z,27.32
2019-04-01T04:14:25.354Z,25.10
2019-04-01T04:16:54.704Z,33.58
2019-04-01T04:19:27.074Z,24.30
2019-04-01T04:21:56.407Z,23.05
2019-04-01T04:24:25.830Z,24.15
2019-04-01T04:26:55.227Z,26.75
2019-04-01T04:29:24.717Z,25.77
2019-04-01T04:31:54.084Z,30.82
2019-04-01T04:34:23.430Z,25.10
2019-04-01T04:36:52.814Z,29.50
2019-04-01T04:39:22.190Z,28.52
2019-04-01T04:41:51.643Z,25.00
2019-04-01T04:44:20.993Z,23.02
2019-04-01T04:46:50.431Z,24.63
2019-04-01T04:49:19.816Z,20.02
2019-04-01T04:51:49.216Z,34.83
2019-04-01T04:54:18.835Z,22.25
2019-04-01T04:56:48.307Z,27.00
2019-04-01T04:59:17.777Z,20.88
2019-04-01T05:01:47.163Z,21.80
2019-04-01T05:04:16.779Z,24.02
2019-04-01T05:06:46.162Z,24.25
2019-04-01T05:09:15.892Z,17.15
2019-04-01T05:11:45.341Z,21.82
2019-04-01T05:14:14.750Z,23.50
2019-04-01T05:16:44.160Z,19.75
2019-04-01T05:19:16.294Z,26.05
2019-04-01T05:21:46.310Z,25.55
2019-04-01T05:24:15.946Z,21.05
2019-04-01T05:26:47.632Z,22.58
2019-04-01T05:29:18.155Z,23.05
2019-04-01T05:31:48.022Z,21.20
2019-04-01T05:34:19.705Z,22.50
2019-04-01T05:36:49.105Z,22.40
2019-04-01T05:39:18.700Z,19.85
2019-04-01T05:41:48.166Z,22.62
2019-04-01T05:44:17.648Z,22.85
2019-04-01T05:46:47.001Z,23.45
2019-04-01T05:49:16.555Z,29.98
2019-04-01T05:51:46.097Z,25.97
2019-04-01T05:54:15.527Z,28.60
2019-04-01T05:56:45.110Z,30.08
2019-04-01T05:59:14.678Z,45.05
2019-04-01T06:01:46.205Z,26.02
2019-04-01T06:04:15.750Z,36.45
2019-04-01T06:06:48.601Z,28.07
2019-04-01T06:09:16.344Z,28.10
2019-04-01T06:11:45.795Z,28.67
2019-04-01T06:14:15.650Z,30.17
2019-04-01T06:16:44.966Z,33.75
2019-04-01T06:19:15.051Z,29.32
2019-04-01T06:21:44.447Z,29.90
2019-04-01T06:24:13.830Z,30.37
2019-04-01T06:26:43.145Z,26.35
2019-04-01T06:29:12.787Z,26.33
2019-04-01T06:31:42.162Z,32.85
2019-04-01T06:34:11.511Z,34.65
2019-04-01T06:36:40.932Z,33.00
2019-04-01T06:39:10.428Z,30.50
2019-04-01T06:41:39.823Z,33.02
2019-04-01T06:44:09.261Z,38.88
2019-04-01T06:46:38.692Z,30.12
2019-04-01T06:49:08.128Z,25.45
2019-04-01T06:51:37.495Z,36.77
2019-04-01T06:54:06.896Z,33.55
2019-04-01T06:56:36.400Z,24.75
2019-04-01T06:59:05.979Z,22.35
2019-04-01T07:01:35.532Z,28.45
2019-04-01T07:04:05.157Z,23.27
2019-04-01T07:06:34.508Z,26.37
2019-04-01T07:09:06.032Z,31.20
2019-04-01T07:11:35.511Z,18.70
2019-04-01T07:14:05.811Z,27.22
2019-04-01T07:16:35.628Z,21.25
2019-04-01T07:19:08.068Z,20.45
2019-04-01T07:21:37.326Z,18.92
2019-04-01T07:24:06.888Z,21.40
2019-04-01T07:26:36.658Z,25.08
2019-04-01T07:29:06.035Z,21.57
2019-04-01T07:31:35.413Z,24.27
2019-04-01T07:34:04.805Z,17.00
2019-04-01T07:36:34.282Z,18.60
2019-04-01T07:39:05.042Z,17.98
2019-04-01T07:41:34.579Z,15.60
2019-04-01T07:44:04.490Z,19.87
2019-04-01T07:46:33.953Z,26.80
2019-04-01T07:49:03.419Z,24.90
2019-04-01T07:51:32.984Z,23.57
2019-04-01T07:54:03.056Z,20.60
2019-04-01T07:56:32.463Z,16.45
2019-04-01T07:59:01.783Z,21.60
2019-04-01T08:01:31.479Z,18.15
2019-04-01T08:04:01.120Z,20.37
2019-04-01T08:06:30.758Z,18.60
2019-04-01T08:09:00.277Z,23.18
2019-04-01T08:11:29.725Z,19.90
2019-04-01T08:13:59.330Z,19.50
2019-04-01T08:16:28.729Z,19.73
2019-04-01T08:18:58.180Z,15.43
2019-04-01T08:21:27.598Z,19.25
2019-04-01T08:23:57.089Z,18.77
2019-04-01T08:26:26.485Z,18.77
2019-04-01T08:28:55.904Z,21.48
2019-04-01T08:31:25.380Z,18.87
2019-04-01T08:33:54.821Z,23.40
2019-04-01T08:36:24.255Z,24.10
2019-04-01T08:38:55.495Z,22.53
2019-04-01T08:41:24.775Z,18.60
2019-04-01T08:43:54.396Z,23.70
2019-04-01T08:46:23.737Z,24.00
2019-04-01T08:48:53.206Z,20.17
2019-04-01T08:51:23.041Z,14.97
2019-04-01T08:53:52.583Z,16.93
2019-04-01T08:56:21.996Z,15.40
2019-04-01T08:58:51.462Z,22.83
2019-04-01T09:01:34.228Z,17.07
2019-04-01T09:03:51.939Z,21.23
2019-04-01T09:06:21.428Z,19.60
2019-04-01T09:09:11.484Z,18.33
2019-04-01T09:11:40.999Z,18.83
2019-04-01T09:14:10.975Z,17.27
2019-04-01T09:16:41.526Z,18.87
2019-04-01T09:19:10.890Z,21.30
2019-04-01T09:21:40.304Z,17.70
2019-04-01T09:24:09.764Z,16.53
2019-04-01T09:26:39.205Z,18.33
2019-04-01T09:29:08.666Z,18.40
2019-04-01T09:31:38.021Z,19.20
2019-04-01T09:34:07.437Z,16.20
2019-04-01T09:36:36.949Z,18.33
2019-04-01T09:39:07.460Z,19.37
2019-04-01T09:41:37.031Z,26.80
2019-04-01T09:44:06.520Z,18.70
2019-04-01T09:46:35.978Z,16.40
2019-04-01T09:49:05.596Z,20.50
2019-04-01T09:51:48.016Z,19.47
2019-04-01T09:54:06.170Z,20.37
2019-04-01T09:56:35.501Z,24.07
2019-04-01T09:59:04.932Z,19.60
2019-04-01T10:01:34.285Z,16.00
2019-04-01T10:04:03.728Z,20.60
2019-04-01T10:06:33.250Z,21.70
2019-04-01T10:09:02.691Z,16.70
2019-04-01T10:11:32.103Z,16.10
2019-04-01T10:14:01.470Z,17.40
2019-04-01T10:16:30.830Z,17.57
2019-04-01T10:19:00.254Z,16.30
2019-04-01T10:21:29.642Z,27.93
2019-04-01T10:23:59.023Z,22.73
2019-04-01T10:26:28.353Z,19.37
2019-04-01T10:29:00.252Z,22.23
2019-04-01T10:31:29.681Z,19.57
2019-04-01T10:33:59.097Z,19.00
2019-04-01T10:36:28.546Z,16.60
2019-04-01T10:38:57.993Z,19.77
2019-04-01T10:41:27.366Z,17.57
2019-04-01T10:43:56.744Z,16.23
2019-04-01T10:46:26.171Z,24.97
2019-04-01T10:48:55.628Z,20.63
2019-04-01T10:51:25.087Z,17.00
2019-04-01T10:53:54.590Z,21.00
2019-04-01T10:56:24.087Z,20.40
2019-04-01T10:58:53.557Z,17.43
2019-04-01T11:01:23.010Z,18.40
2019-04-01T11:03:52.438Z,22.07
2019-04-01T11:06:21.992Z,18.80
2019-04-01T11:08:52.114Z,40.77
2019-04-01T11:11:21.999Z,22.10
2019-04-01T11:13:54.072Z,20.13
2019-04-01T11:16:23.761Z,20.03
2019-04-01T11:18:53.212Z,26.53
2019-04-01T11:21:22.628Z,20.90
2019-04-01T11:23:54.594Z,20.27
2019-04-01T11:26:26.511Z,25.27
2019-04-01T11:28:56.061Z,20.83
2019-04-01T11:31:25.468Z,23.27
2019-04-01T11:33:54.860Z,24.00
2019-04-01T11:36:24.470Z,18.40
2019-04-01T11:38:53.928Z,23.40
2019-04-01T11:41:23.341Z,21.20
2019-04-01T11:43:53.028Z,23.07
2019-04-01T11:46:23.277Z,28.10
2019-04-01T11:48:52.875Z,20.93
2019-04-01T11:51:32.542Z,22.23
2019-04-01T11:53:53.451Z,24.63
2019-04-01T11:56:26.294Z,22.73
2019-04-01T11:58:56.647Z,21.90
2019-04-01T12:01:25.132Z,23.00
2019-04-01T12:03:54.562Z,20.70
2019-04-01T12:06:24.030Z,19.00
2019-04-01T12:08:53.447Z,20.43
2019-04-01T12:11:22.988Z,23.43
2019-04-01T12:13:52.347Z,20.60
2019-04-01T12:16:21.778Z,29.00
2019-04-01T12:18:51.238Z,24.90
2019-04-01T12:21:20.575Z,23.07
2019-04-01T12:23:50.029Z,23.70
2019-04-01T12:26:19.445Z,20.70
2019-04-01T12:28:49.011Z,25.23
2019-04-01T12:31:18.446Z,23.60
2019-04-01T12:33:48.004Z,31.73
2019-04-01T12:36:19.160Z,23.80
2019-04-01T12:38:48.596Z,19.77
2019-04-01T12:41:18.307Z,26.57
2019-04-01T12:43:48.502Z,24.80
2019-04-01T12:46:18.062Z,29.30
2019-04-01T12:48:47.460Z,22.30
2019-04-01T12:51:16.820Z,26.33
2019-04-01T12:53:46.313Z,25.53
2019-04-01T12:56:15.775Z,22.43
2019-04-01T12:58:45.309Z,22.40
2019-04-01T13:01:14.891Z,24.20
2019-04-01T13:03:44.263Z,19.87
2019-04-01T13:06:13.608Z,24.73
2019-04-01T13:08:43.015Z,18.47
2019-04-01T13:11:12.443Z,23.03
2019-04-01T13:13:42.048Z,27.87
2019-04-01T13:16:11.410Z,23.60
2019-04-01T13:18:40.846Z,21.67
2019-04-01T13:21:11.152Z,28.37
2019-04-01T13:23:40.670Z,31.70
2019-04-01T13:26:10.062Z,23.40
2019-04-01T13:28:42.269Z,25.73
2019-04-01T13:31:10.664Z,25.03
2019-04-01T13:33:40.185Z,19.47
2019-04-01T13:36:09.580Z,31.57
2019-04-01T13:38:39.021Z,23.50
2019-04-01T13:41:08.425Z,30.90
2019-04-01T13:43:37.990Z,22.10
2019-04-01T13:46:07.439Z,28.33
2019-04-01T13:48:36.893Z,21.03
2019-04-01T13:51:06.266Z,21.40
2019-04-01T13:53:35.706Z,22.80
2019-04-01T13:56:05.197Z,22.50
2019-04-01T13:58:34.726Z,23.40
2019-04-01T14:01:04.150Z,29.03
2019-04-01T14:03:33.777Z,25.40
2019-04-01T14:06:06.474Z,27.73
2019-04-01T14:08:35.820Z,22.60
2019-04-01T14:11:06.130Z,23.80
2019-04-01T14:13:35.812Z,25.13
2019-04-01T14:16:05.499Z,32.30
2019-04-01T14:18:34.865Z,23.57
2019-04-01T14:21:15.198Z,28.37
2019-04-01T14:23:35.516Z,28.17
2019-04-01T14:26:05.066Z,26.23
2019-04-01T14:28:34.444Z,20.13
2019-04-01T14:31:03.835Z,23.57
2019-04-01T14:33:34.538Z,20.93
2019-04-01T14:36:04.825Z,22.50
2019-04-01T14:38:34.512Z,23.13
2019-04-01T14:41:04.000Z,27.33
2019-04-01T14:43:33.446Z,48.87
2019-04-01T14:46:02.858Z,22.27
2019-04-01T14:48:32.264Z,22.93
2019-04-01T14:51:01.768Z,22.63
2019-04-01T14:53:31.169Z,23.60
2019-04-01T14:56:00.604Z,21.60
2019-04-01T14:58:29.957Z,20.77
2019-04-01T15:01:01.233Z,28.00
2019-04-01T15:03:30.970Z,20.23
2019-04-01T15:06:00.292Z,20.00
2019-04-01T15:08:29.806Z,29.47
2019-04-01T15:10:59.313Z,21.07
2019-04-01T15:13:28.878Z,19.20
2019-04-01T15:15:58.347Z,24.50
2019-04-01T15:18:27.797Z,20.40
2019-04-01T15:20:57.187Z,21.27
2019-04-01T15:23:27.467Z,25.13
2019-04-01T15:25:57.215Z,20.67
2019-04-01T15:28:26.573Z,22.80
2019-04-01T15:31:15.093Z,18.57
2019-04-01T15:33:44.510Z,24.10
2019-04-01T15:36:14.078Z,21.77
2019-04-01T15:38:43.545Z,21.67
2019-04-01T15:41:12.949Z,21.10
2019-04-01T15:43:42.430Z,16.73
2019-04-01T15:46:11.899Z,19.50
2019-04-01T15:48:41.335Z,17.67
2019-04-01T15:51:10.782Z,15.20
2019-04-01T15:53:40.190Z,17.77
2019-04-01T15:56:09.672Z,15.77
2019-04-01T15:58:39.126Z,17.53
2019-04-01T16:01:08.916Z,24.20
2019-04-01T16:03:38.404Z,18.23
2019-04-01T16:06:08.005Z,13.70
2019-04-01T16:08:37.488Z,22.97
2019-04-01T16:11:06.896Z,14.33
2019-04-01T16:13:36.311Z,16.00
2019-04-01T16:16:06.978Z,20.80
2019-04-01T16:18:36.682Z,15.93
2019-04-01T16:21:06.272Z,15.00
2019-04-01T16:23:35.728Z,14.90
2019-04-01T16:26:09.316Z,28.57
2019-04-01T16:28:37.145Z,17.57
2019-04-01T16:31:06.696Z,13.43
2019-04-01T16:33:36.434Z,15.00
2019-04-01T16:36:05.939Z,25.73
2019-04-01T16:38:35.664Z,18.23
2019-04-01T16:41:05.450Z,14.87
2019-04-01T16:43:38.066Z,24.50
2019-04-01T16:46:06.104Z,15.23
2019-04-01T16:48:35.576Z,14.23
2019-04-01T16:51:05.319Z,15.83
2019-04-01T16:53:34.701Z,24.50
2019-04-01T16:56:05.210Z,17.80
2019-04-01T16:58:34.793Z,16.70
2019-04-01T17:01:04.296Z,19.60
2019-04-01T17:03:33.896Z,15.43
2019-04-01T17:06:03.299Z,18.40
2019-04-01T17:08:32.947Z,16.00
2019-04-01T17:11:02.516Z,13.77
2019-04-01T17:13:31.895Z,17.87
2019-04-01T17:16:01.865Z,16.50
2019-04-01T17:18:31.814Z,17.70
2019-04-01T17:21:01.160Z,18.20
2019-04-01T17:23:30.764Z,17.90
2019-04-01T17:26:01.672Z,18.60
2019-04-01T17:28:31.046Z,17.60
2019-04-01T17:31:00.531Z,14.30
2019-04-01T17:33:29.922Z,16.07
2019-04-01T17:35:59.430Z,14.40
2019-04-01T17:38:29.036Z,16.10
2019-04-01T17:40:58.601Z,14.80
2019-04-01T17:43:28.110Z,22.00
2019-04-01T17:45:57.651Z,14.27
2019-04-01T17:48:27.121Z,17.27
2019-04-01T17:50:57.975Z,14.03
2019-04-01T17:53:28.620Z,17.30
2019-04-01T17:55:58.185Z,15.13
2019-04-01T17:58:27.567Z,12.30
2019-04-01T18:00:58.611Z,13.77
2019-04-01T18:03:28.174Z,14.73
2019-04-01T18:05:57.634Z,14.13
2019-04-01T18:08:27.255Z,14.40
2019-04-01T18:10:57.376Z,10.13
2019-04-01T18:13:27.274Z,10.17
2019-04-01T18:15:57.575Z,12.13
2019-04-01T18:18:27.669Z,15.10
2019-04-01T18:20:57.472Z,14.53
2019-04-01T18:23:27.157Z,10.67
2019-04-01T18:25:56.747Z,9.97
2019-04-01T18:28:26.356Z,10.70
2019-04-01T18:31:03.971Z,12.13
2019-04-01T18:33:33.916Z,10.90
2019-04-01T18:36:03.883Z,12.00
2019-04-01T18:38:34.429Z,10.50
2019-04-01T18:41:05.156Z,10.17
2019-04-01T18:43:34.837Z,20.00
2019-04-01T18:46:04.688Z,11.50
2019-04-01T18:48:34.187Z,9.87
2019-04-01T18:51:03.964Z,10.47
2019-04-01T18:53:33.464Z,10.30
2019-04-01T18:56:02.989Z,13.93
2019-04-01T18:58:32.506Z,12.70
2019-04-01T19:01:04.356Z,14.10
2019-04-01T19:03:33.234Z,10.10
2019-04-01T19:06:02.782Z,15.27
2019-04-01T19:08:33.236Z,9.83
2019-04-01T19:11:03.161Z,10.17
2019-04-01T19:13:32.670Z,13.80
2019-04-01T19:16:03.670Z,11.53
2019-04-01T19:18:33.378Z,9.90
2019-04-01T19:21:04.841Z,12.05
2019-04-01T19:23:34.101Z,10.03
2019-04-01T19:26:03.754Z,10.73
2019-04-01T19:28:33.412Z,10.53
2019-04-01T19:31:02.855Z,11.25
2019-04-01T19:33:32.301Z,10.93
2019-04-01T19:36:02.002Z,15.65
2019-04-01T19:38:31.627Z,11.85
2019-04-01T19:41:01.274Z,21.87
2019-04-01T19:43:30.821Z,14.28
2019-04-01T19:46:00.382Z,13.75
2019-04-01T19:48:30.040Z,11.22
2019-04-01T19:50:59.628Z,13.08
2019-04-01T19:53:29.244Z,13.90
2019-04-01T19:55:58.777Z,11.73
2019-04-01T19:58:28.144Z,14.25
2019-04-01T20:00:57.725Z,15.85
2019-04-01T20:03:27.273Z,14.78
2019-04-01T20:05:56.667Z,12.68
2019-04-01T20:08:26.061Z,18.48
2019-04-01T20:10:55.593Z,15.70
2019-04-01T20:13:25.062Z,17.95
2019-04-01T20:15:54.572Z,23.00
2019-04-01T20:18:24.047Z,19.65
2019-04-01T20:20:53.500Z,26.50
2019-04-01T20:23:23.170Z,22.98
2019-04-01T20:25:52.905Z,19.65
2019-04-01T20:28:22.728Z,24.70
2019-04-01T20:30:52.184Z,21.12
2019-04-01T20:33:21.702Z,24.98
2019-04-01T20:35:51.170Z,25.15
2019-04-01T20:38:20.601Z,27.13
2019-04-01T20:40:50.703Z,21.82
2019-04-01T20:43:20.223Z,25.45
2019-04-01T20:45:49.659Z,23.25
2019-04-01T20:48:19.135Z,22.40
2019-04-01T20:50:48.649Z,20.97
2019-04-01T20:53:18.211Z,28.83
2019-04-01T20:55:50.570Z,21.97
2019-04-01T20:58:19.776Z,21.82
2019-04-01T21:00:49.429Z,27.22
2019-04-01T21:03:18.884Z,27.50
2019-04-01T21:05:48.227Z,27.35
2019-04-01T21:08:17.697Z,21.62
2019-04-01T21:10:47.159Z,23.18
2019-04-01T21:13:16.604Z,18.15
2019-04-01T21:15:45.944Z,22.32
2019-04-01T21:18:15.436Z,20.27
2019-04-01T21:20:44.921Z,23.98
2019-04-01T21:23:14.276Z,25.75
2019-04-01T21:25:43.711Z,22.17
2019-04-01T21:28:13.119Z,36.05
2019-04-01T21:30:42.561Z,28.60
2019-04-01T21:33:12.033Z,26.68
2019-04-01T21:35:41.414Z,33.58
2019-04-01T21:38:10.820Z,27.37
2019-04-01T21:40:40.214Z,24.63
2019-04-01T21:43:09.868Z,29.05
2019-04-01T21:45:39.499Z,26.15
2019-04-01T21:48:10.609Z,22.30
2019-04-01T21:50:40.495Z,29.87
2019-04-01T21:53:10.027Z,23.83
2019-04-01T21:55:39.351Z,23.92
2019-04-01T21:58:08.708Z,37.95
2019-04-01T22:00:42.101Z,23.20
2019-04-01T22:03:13.418Z,25.88
2019-04-01T22:05:43.440Z,27.93
2019-04-01T22:08:13.186Z,29.35
2019-04-01T22:10:42.625Z,26.73
2019-04-01T22:13:12.124Z,22.48
2019-04-01T22:15:41.559Z,20.62
2019-04-01T22:18:10.994Z,22.40
2019-04-01T22:20:42.602Z,28.47
2019-04-01T22:23:11.540Z,29.70
2019-04-01T22:25:42.307Z,24.25
2019-04-01T22:28:11.763Z,26.40
2019-04-01T22:30:41.193Z,21.65
2019-04-01T22:33:11.208Z,27.27
2019-04-01T22:35:44.301Z,39.10
2019-04-01T22:38:24.555Z,24.43
2019-04-01T22:40:44.940Z,22.73
2019-04-01T22:43:14.300Z,25.30
2019-04-01T22:45:43.675Z,25.27
2019-04-01T22:48:13.205Z,28.80
2019-04-01T22:50:43.601Z,27.27
2019-04-01T22:53:12.950Z,25.20
2019-04-01T22:55:42.891Z,27.32
2019-04-01T22:58:12.211Z,28.47
2019-04-01T23:00:41.645Z,27.30
2019-04-01T23:03:11.431Z,32.00
2019-04-01T23:05:41.190Z,24.95
2019-04-01T23:08:10.535Z,31.90
2019-04-01T23:10:39.932Z,25.85
2019-04-01T23:13:09.342Z,22.32
2019-04-01T23:15:38.655Z,23.92
2019-04-01T23:18:08.051Z,31.07
2019-04-01T23:20:37.514Z,23.30
2019-04-01T23:23:06.952Z,27.42
2019-04-01T23:25:36.434Z,22.35
2019-04-01T23:28:05.888Z,25.30
2019-04-01T23:30:35.328Z,22.07
2019-04-01T23:33:04.976Z,32.75
2019-04-01T23:35:34.448Z,21.62
2019-04-01T23:38:03.819Z,30.23
2019-04-01T23:40:33.301Z,27.93
2019-04-01T23:43:02.682Z,26.62
2019-04-01T23:45:32.056Z,24.23
2019-04-01T23:48:01.470Z,29.27
2019-04-01T23:50:30.784Z,25.12
2019-04-01T23:53:00.335Z,26.48
2019-04-01T23:55:29.688Z,24.12
2019-04-01T23:57:59.131Z,21.05
